Time;durP1;ratioP1;P1;durP2;ratioP2;P2;SDS_P1;SDS_P2;PMS_P1;PMS_P2;Temp;Humidity;BMP_temperature;BMP_pressure;BME280_temperature;BME280_humidity;BME280_pressure;Samples;Min_cycle;Max_cycle;Signal;HPM_P1;HPM_P2
2021/12/08 00:00:27;;;;;;;4.38;0.40;;;;;;;2.81;100.00;97734.59;5082358;28;20385;-50
2021/12/08 00:02:54;;;;;;;7.00;1.63;;;;;;;2.80;100.00;97733.81;5080986;28;20028;-47
2021/12/08 00:05:22;;;;;;;2.05;0.30;;;;;;;2.83;100.00;97738.63;5081798;28;20025;-48
2021/12/08 00:07:49;;;;;;;3.28;0.45;;;;;;;2.93;100.00;97717.25;5083398;28;20016;-51
2021/12/08 00:10:29;;;;;;;8.70;0.52;;;;;;;2.95;100.00;97702.13;5082166;28;20658;-48
2021/12/08 00:13:03;;;;;;;4.50;0.65;;;;;;;2.96;100.00;97695.09;5082788;28;20493;-50
2021/12/08 00:15:49;;;;;;;4.72;0.60;;;;;;;2.96;100.00;97690.66;5082133;28;20097;-47
2021/12/08 00:18:22;;;;;;;5.90;1.05;;;;;;;2.89;100.00;97678.59;5081571;28;20061;-48
2021/12/08 00:20:48;;;;;;;6.03;0.98;;;;;;;2.87;100.00;97675.41;5082712;28;20028;-48
2021/12/08 00:23:15;;;;;;;1.50;0.10;;;;;;;2.90;100.00;97698.56;5081966;28;20028;-53
2021/12/08 00:25:43;;;;;;;3.05;1.05;;;;;;;2.90;100.00;97704.56;5078188;28;20038;-51
2021/12/08 00:28:09;;;;;;;11.48;0.20;;;;;;;2.96;100.00;97713.41;5082397;28;20063;-52
2021/12/08 00:30:37;;;;;;;3.78;0.82;;;;;;;3.04;100.00;97710.53;5078332;28;20024;-50
2021/12/08 00:33:04;;;;;;;2.05;0.40;;;;;;;3.04;100.00;97706.09;5085330;28;20396;-47
2021/12/08 00:35:29;;;;;;;6.28;0.45;;;;;;;3.10;100.00;97698.41;5085443;28;20161;-47
2021/12/08 00:37:56;;;;;;;8.20;0.70;;;;;;;3.13;100.00;97698.81;5087023;28;20111;-48
2021/12/08 00:40:22;;;;;;;4.65;0.22;;;;;;;3.16;100.00;97694.97;5086320;28;20035;-48
2021/12/08 00:42:48;;;;;;;2.90;0.20;;;;;;;3.17;100.00;97689.50;5085822;28;20415;-48
2021/12/08 00:45:16;;;;;;;11.20;0.68;;;;;;;3.15;100.00;97681.09;5087611;28;20024;-48
2021/12/08 00:47:42;;;;;;;4.07;0.40;;;;;;;3.19;100.00;97661.31;5086711;28;20055;-47
2021/12/08 00:50:10;;;;;;;3.22;0.47;;;;;;;3.14;100.00;97683.91;5087038;28;20067;-51
2021/12/08 00:52:36;;;;;;;2.65;0.60;;;;;;;3.07;100.00;97683.94;5079787;28;20377;-49
2021/12/08 00:55:04;;;;;;;6.82;1.23;;;;;;;2.98;100.00;97680.78;5087117;28;20438;-49
2021/12/08 00:57:30;;;;;;;10.82;0.30;;;;;;;2.96;100.00;97688.03;5084283;28;20119;-51
2021/12/08 00:59:55;;;;;;;3.35;0.35;;;;;;;2.98;100.00;97691.25;5087100;28;20173;-46
2021/12/08 01:02:20;;;;;;;3.55;1.25;;;;;;;3.00;100.00;97688.44;5086265;28;20035;-46
2021/12/08 01:04:46;;;;;;;6.40;0.20;;;;;;;2.97;100.00;97697.50;5085295;28;20541;-46
2021/12/08 01:07:12;;;;;;;3.08;0.30;;;;;;;3.04;100.00;97716.56;5085314;28;20040;-47
2021/12/08 01:09:37;;;;;;;1.33;0.20;;;;;;;3.09;100.00;97708.09;5085517;28;20596;-47
2021/12/08 01:12:04;;;;;;;7.13;1.15;;;;;;;3.14;100.00;97704.84;5086539;28;20425;-47
2021/12/08 01:14:32;;;;;;;3.05;0.40;;;;;;;3.19;100.00;97703.19;5085702;28;20035;-47
2021/12/08 01:16:58;;;;;;;4.05;0.40;;;;;;;3.20;100.00;97704.00;5086365;28;20032;-46
2021/12/08 01:19:24;;;;;;;2.55;0.57;;;;;;;3.21;100.00;97706.41;5087243;28;20370;-46
2021/12/08 01:21:50;;;;;;;4.72;1.52;;;;;;;3.15;100.00;97709.06;5084610;28;20384;-48
2021/12/08 01:24:15;;;;;;;4.68;0.30;;;;;;;3.14;100.00;97718.72;5085468;28;20426;-47
2021/12/08 01:26:41;;;;;;;1.80;0.30;;;;;;;3.15;100.00;97728.22;5086655;28;20036;-48
2021/12/08 01:29:07;;;;;;;2.90;0.28;;;;;;;3.31;100.00;97721.66;5086051;28;20032;-46
2021/12/08 01:31:35;;;;;;;5.20;0.95;;;;;;;3.26;100.00;97719.69;5086739;28;20024;-47
2021/12/08 01:34:00;;;;;;;8.65;0.90;;;;;;;3.14;100.00;97723.97;5065786;28;20115;-46
2021/12/08 01:36:26;;;;;;;4.13;0.43;;;;;;;3.21;100.00;97719.50;5084773;28;20482;-48
2021/12/08 01:38:51;;;;;;;4.25;0.13;;;;;;;3.14;100.00;97725.78;5065874;28;20024;-49
2021/12/08 01:41:17;;;;;;;7.13;1.40;;;;;;;3.14;100.00;97731.03;5080132;28;20027;-46
2021/12/08 01:45:56;;;;;;;5.45;0.50;;;;;;;3.12;100.00;97728.59;5084340;28;20078;-49
2021/12/08 01:46:29;;;;;;;7.47;0.70;;;;;;;3.12;100.00;97717.34;5078896;28;20097;-47
2021/12/08 01:48:54;;;;;;;3.08;0.28;;;;;;;3.14;100.00;97713.50;5057978;28;20036;-46
2021/12/08 01:51:20;;;;;;;1.02;0.30;;;;;;;3.12;100.00;97723.38;5082582;28;20433;-46
2021/12/08 01:53:49;;;;;;;7.90;0.30;;;;;;;3.15;100.00;97706.44;5080111;28;20036;-47
2021/12/08 01:56:16;;;;;;;1.73;0.17;;;;;;;3.24;100.00;97708.59;5077872;28;20020;-49
2021/12/08 01:58:41;;;;;;;5.38;0.75;;;;;;;3.40;100.00;97699.44;5076943;28;20135;-46
2021/12/08 02:01:10;;;;;;;0.55;0.03;;;;;;;3.32;100.00;97702.31;5080189;28;20111;-47
2021/12/08 02:03:37;;;;;;;2.30;0.68;;;;;;;3.26;100.00;97698.72;5086767;28;20024;-46
2021/12/08 02:06:06;;;;;;;4.43;0.28;;;;;;;3.18;100.00;97698.97;5086067;28;20120;-48
2021/12/08 02:08:32;;;;;;;2.03;0.38;;;;;;;3.15;100.00;97711.69;5086571;28;20055;-50
2021/12/08 02:10:59;;;;;;;1.95;0.17;;;;;;;3.19;100.00;97711.06;5083293;28;20109;-46
2021/12/08 02:13:27;;;;;;;7.28;0.32;;;;;;;3.02;100.00;97717.78;5085682;28;20170;-47
2021/12/08 02:15:52;;;;;;;1.48;0.28;;;;;;;3.06;100.00;97719.78;5081134;28;20369;-47
2021/12/08 02:18:18;;;;;;;1.20;0.40;;;;;;;3.15;100.00;97709.88;5086016;28;20032;-47
2021/12/08 02:20:48;;;;;;;5.15;0.43;;;;;;;3.26;100.00;97709.19;5085238;28;20047;-47
2021/12/08 02:23:15;;;;;;;6.18;0.75;;;;;;;3.17;100.00;97704.41;5082390;28;20507;-47
2021/12/08 02:25:40;;;;;;;5.28;0.43;;;;;;;3.11;100.00;97707.88;5079684;28;20051;-46
2021/12/08 02:28:08;;;;;;;1.45;1.00;;;;;;;2.98;100.00;97711.38;5085604;28;20050;-47
2021/12/08 02:30:48;;;;;;;3.33;0.40;;;;;;;3.09;100.00;97717.75;5085004;28;20031;-46
2021/12/08 02:49:29;;;;;;;2.75;0.57;;;;;;;3.13;100.00;97751.19;5077294;28;20416;-46
2021/12/08 02:51:55;;;;;;;4.13;0.65;;;;;;;3.07;100.00;97757.22;5079204;28;20461;-46
2021/12/08 02:54:21;;;;;;;3.47;0.20;;;;;;;3.10;100.00;97758.63;5083652;28;20119;-46
2021/12/08 02:56:48;;;;;;;3.28;0.32;;;;;;;3.09;100.00;97760.44;5084234;28;20034;-47
2021/12/08 02:59:13;;;;;;;6.07;2.15;;;;;;;3.03;100.00;97766.53;5080818;28;20059;-46
2021/12/08 03:01:39;;;;;;;4.70;1.08;;;;;;;3.08;100.00;97764.09;5084149;28;20027;-46
2021/12/08 03:04:06;;;;;;;9.27;0.50;;;;;;;3.08;100.00;97761.47;5078705;28;20106;-46
2021/12/08 03:06:31;;;;;;;6.40;0.38;;;;;;;2.99;100.00;97760.09;5085024;28;20059;-50
2021/12/08 03:08:57;;;;;;;5.60;0.57;;;;;;;2.88;100.00;97755.53;5085651;28;20024;-46
2021/12/08 03:11:22;;;;;;;4.25;1.23;;;;;;;2.92;100.00;97743.63;5085989;28;20067;-47
2021/12/08 03:14:11;;;;;;;3.92;0.88;;;;;;;3.08;100.00;97742.34;5085598;28;20484;-46
2021/12/08 03:16:40;;;;;;;7.82;0.60;;;;;;;3.02;100.00;97742.19;5085575;28;20039;-50
2021/12/08 03:19:07;;;;;;;2.20;0.10;;;;;;;2.95;100.00;97759.72;5064517;28;20047;-46
2021/12/08 03:21:33;;;;;;;5.15;1.35;;;;;;;3.01;100.00;97768.56;5085639;28;20035;-46
2021/12/08 03:26:35;;;;;;;3.28;0.25;;;;;;;3.06;100.00;97780.00;5081305;28;20503;-47
2021/12/08 03:29:16;;;;;;;3.60;0.15;;;;;;;3.04;100.00;97781.22;5084266;28;20054;-48
2021/12/08 03:31:44;;;;;;;10.23;0.95;;;;;;;3.14;100.00;97773.72;5083730;28;20120;-50
2021/12/08 03:34:09;;;;;;;7.72;1.02;;;;;;;3.11;100.00;97781.19;5085180;28;20043;-46
2021/12/08 03:36:35;;;;;;;10.55;0.45;;;;;;;3.07;100.00;97786.03;5089247;28;20027;-46
2021/12/08 03:39:01;;;;;;;2.92;0.77;;;;;;;3.16;100.00;97784.78;5087802;28;20097;-46
2021/12/08 03:41:31;;;;;;;9.60;1.75;;;;;;;3.15;100.00;97785.00;5084729;28;20067;-46
2021/12/08 03:43:57;;;;;;;5.30;1.60;;;;;;;3.13;100.00;97787.03;5085328;28;20036;-48
2021/12/08 03:46:26;;;;;;;5.40;2.20;;;;;;;3.10;100.00;97796.13;5084342;28;20089;-50
2021/12/08 03:48:53;;;;;;;9.02;1.02;;;;;;;3.15;100.00;97785.00;5083964;28;20480;-48
2021/12/08 03:51:19;;;;;;;7.38;0.52;;;;;;;3.16;100.00;97773.53;5083700;28;20019;-47
2021/12/08 03:53:45;;;;;;;3.50;0.95;;;;;;;3.13;100.00;97787.84;5085729;28;20032;-46
2021/12/08 03:56:10;;;;;;;9.57;1.30;;;;;;;3.14;100.00;97778.97;5081446;28;20032;-46
2021/12/08 03:58:35;;;;;;;2.58;0.55;;;;;;;3.10;100.00;97797.91;5084866;28;20038;-46
2021/12/08 04:01:02;;;;;;;3.15;0.35;;;;;;;3.15;100.00;97800.69;5084409;28;20028;-48
2021/12/08 04:03:31;;;;;;;2.92;0.45;;;;;;;3.22;100.00;97807.50;5083870;28;20097;-47
2021/12/08 04:06:01;;;;;;;6.35;0.65;;;;;;;3.40;100.00;97813.88;5087552;28;20077;-49
2021/12/08 04:08:32;;;;;;;8.45;0.75;;;;;;;3.45;100.00;97820.09;5085793;28;20128;-46
2021/12/08 04:11:03;;;;;;;19.50;1.05;;;;;;;3.57;100.00;97804.53;5093118;28;20039;-47
2021/12/08 04:13:38;;;;;;;11.83;0.77;;;;;;;3.59;100.00;97801.66;5088445;28;20085;-47
2021/12/08 04:16:04;;;;;;;7.18;0.35;;;;;;;3.54;100.00;97828.53;5070814;28;20292;-47
2021/12/08 04:18:29;;;;;;;3.92;0.57;;;;;;;3.53;100.00;97832.13;5089108;28;20561;-46
2021/12/08 04:20:58;;;;;;;5.15;0.50;;;;;;;3.57;100.00;97838.59;5089766;28;20028;-48
2021/12/08 04:23:26;;;;;;;10.95;1.17;;;;;;;3.58;100.00;97819.22;5078875;28;20507;-47
2021/12/08 04:25:55;;;;;;;4.22;0.90;;;;;;;3.57;100.00;97829.91;5089088;28;20078;-46
2021/12/08 04:28:30;;;;;;;3.42;0.20;;;;;;;3.52;100.00;97822.69;5088672;28;20036;-46
2021/12/08 04:31:06;;;;;;;5.18;0.93;;;;;;;3.39;100.00;97823.56;5083621;28;20036;-46
2021/12/08 04:33:34;;;;;;;4.82;2.00;;;;;;;3.37;100.00;97830.03;5088150;28;20031;-48
2021/12/08 04:36:01;;;;;;;7.43;1.48;;;;;;;3.32;100.00;97828.03;5088303;28;20040;-46
2021/12/08 04:38:36;;;;;;;4.50;1.15;;;;;;;3.37;100.00;97814.31;5086937;28;20846;-46
2021/12/08 04:41:07;;;;;;;2.00;0.70;;;;;;;3.37;100.00;97814.31;5089156;28;20040;-49
2021/12/08 05:10:00;;;;;;;8.27;0.85;;;;;;;3.15;100.00;97829.50;5084570;28;20784;-46
2021/12/08 05:12:31;;;;;;;4.65;0.47;;;;;;;3.09;100.00;97841.63;5086052;28;20077;-46
2021/12/08 05:15:15;;;;;;;2.63;0.85;;;;;;;3.04;100.00;97838.81;5084584;28;20161;-46
2021/12/08 05:18:20;;;;;;;5.82;1.35;;;;;;;3.08;100.00;97860.97;5084565;28;20860;-47
2021/12/08 05:21:08;;;;;;;7.03;1.30;;;;;;;3.12;100.00;97858.72;5085367;28;20528;-46
2021/12/08 05:23:45;;;;;;;3.67;1.63;;;;;;;3.16;100.00;97868.59;5086240;28;20034;-46
2021/12/08 05:26:17;;;;;;;1.67;0.40;;;;;;;3.10;100.00;97865.97;5085125;28;20034;-48
2021/12/08 05:28:46;;;;;;;12.23;1.52;;;;;;;3.08;100.00;97870.63;5085739;28;20043;-46
2021/12/08 05:31:17;;;;;;;6.55;0.70;;;;;;;3.19;100.00;97885.69;5083246;28;20054;-47
2021/12/08 05:33:44;;;;;;;4.25;1.30;;;;;;;3.29;100.00;97870.34;5084539;28;20040;-46
2021/12/08 05:36:10;;;;;;;6.47;1.00;;;;;;;3.31;100.00;97873.56;5084523;28;20039;-47
2021/12/08 05:38:37;;;;;;;10.13;1.20;;;;;;;3.26;100.00;97882.03;5085746;28;20564;-47
2021/12/08 05:41:11;;;;;;;4.40;0.50;;;;;;;3.18;100.00;97884.91;5085380;28;20032;-46
2021/12/08 05:43:36;;;;;;;5.60;1.05;;;;;;;3.12;100.00;97885.69;5086211;28;20384;-48
2021/12/08 05:46:03;;;;;;;10.02;2.90;;;;;;;3.11;100.00;97889.34;5082953;28;20101;-47
2021/12/08 05:48:31;;;;;;;3.63;2.35;;;;;;;3.04;100.00;97884.13;5085702;28;20476;-47
2021/12/08 05:51:07;;;;;;;4.40;0.60;;;;;;;2.93;100.00;97886.56;5067257;28;20059;-50
2021/12/08 05:53:33;;;;;;;7.05;1.90;;;;;;;2.80;100.00;97893.44;5084948;28;20028;-49
2021/12/08 05:55:59;;;;;;;2.00;0.70;;;;;;;2.80;100.00;97898.69;5086440;28;20039;-47
2021/12/08 05:58:28;;;;;;;8.90;0.57;;;;;;;2.73;100.00;97910.97;5084115;28;20024;-46
2021/12/08 06:01:05;;;;;;;3.60;0.50;;;;;;;2.71;100.00;97920.84;5077378;28;20089;-46
2021/12/08 06:03:32;;;;;;;5.78;2.55;;;;;;;2.71;100.00;97915.63;5087272;28;20036;-47
2021/12/08 06:05:58;;;;;;;6.45;0.90;;;;;;;2.72;100.00;97927.69;5083944;28;20035;-50
2021/12/08 06:08:24;;;;;;;5.88;0.57;;;;;;;2.73;100.00;97928.47;5086925;28;20039;-48
2021/12/08 06:10:49;;;;;;;3.28;1.00;;;;;;;2.66;100.00;97941.59;5086780;28;20043;-46
2021/12/08 06:13:17;;;;;;;9.48;1.48;;;;;;;2.66;100.00;97938.13;5086396;28;20088;-48
2021/12/08 06:15:44;;;;;;;11.63;1.00;;;;;;;2.67;100.00;97939.75;5087868;28;20035;-47
2021/12/08 06:18:10;;;;;;;9.98;0.70;;;;;;;2.72;100.00;97932.91;5086855;28;20034;-47
2021/12/08 06:20:37;;;;;;;6.70;0.70;;;;;;;2.69;100.00;97946.41;5072667;28;20115;-47
2021/12/08 06:23:06;;;;;;;7.43;1.30;;;;;;;2.69;100.00;97943.00;5085306;28;20051;-46
2021/12/08 06:25:31;;;;;;;3.97;1.27;;;;;;;2.69;100.00;97945.59;5087064;28;20513;-46
2021/12/08 06:27:57;;;;;;;14.57;1.23;;;;;;;2.59;100.00;97949.41;5084101;28;20062;-46
2021/12/08 06:30:26;;;;;;;7.35;0.90;;;;;;;2.58;100.00;97962.69;5087010;28;20047;-46
2021/12/08 06:32:52;;;;;;;5.88;0.77;;;;;;;2.59;100.00;97959.09;5085817;28;20020;-47
2021/12/08 06:35:23;;;;;;;6.53;0.50;;;;;;;2.56;100.00;97954.25;5086018;28;20516;-49
2021/12/08 06:37:49;;;;;;;6.68;0.90;;;;;;;2.55;100.00;97955.25;5085947;28;20040;-46
2021/12/08 06:40:24;;;;;;;5.60;0.90;;;;;;;2.64;100.00;97948.03;5085602;28;20039;-46
2021/12/08 06:42:53;;;;;;;1.67;0.55;;;;;;;2.66;100.00;97956.44;5081807;28;20031;-46
2021/12/08 06:45:24;;;;;;;2.17;0.20;;;;;;;2.64;100.00;97958.47;5085304;28;20028;-52
2021/12/08 06:47:51;;;;;;;4.97;0.80;;;;;;;2.57;100.00;97958.47;5064483;28;20153;-46
2021/12/08 06:50:28;;;;;;;5.28;0.60;;;;;;;2.60;100.00;97961.47;5085289;28;20085;-48
2021/12/08 06:52:56;;;;;;;3.50;0.68;;;;;;;2.58;100.00;97957.44;5082867;28;20489;-46
2021/12/08 06:55:26;;;;;;;5.28;0.85;;;;;;;2.56;100.00;97964.72;5084203;28;20055;-47
2021/12/08 06:58:00;;;;;;;2.15;0.95;;;;;;;2.57;100.00;97961.09;5085305;28;20073;-46
2021/12/08 07:00:55;;;;;;;5.05;1.95;;;;;;;2.61;100.00;97959.69;5084471;28;20047;-49
2021/12/08 07:03:33;;;;;;;7.70;0.40;;;;;;;2.59;100.00;97980.00;5086401;28;20050;-47
2021/12/08 07:06:19;;;;;;;3.70;0.90;;;;;;;2.61;100.00;97983.25;5085822;28;20035;-47
2021/12/08 07:08:53;;;;;;;9.30;0.73;;;;;;;2.71;100.00;97983.66;5078704;28;20568;-47
2021/12/08 07:11:21;;;;;;;8.00;1.13;;;;;;;2.78;100.00;97976.56;5083398;28;20020;-46
2021/12/08 07:13:53;;;;;;;7.28;1.48;;;;;;;2.71;100.00;97975.78;5084745;28;20105;-48
2021/12/08 07:16:20;;;;;;;;;;;;;;;2.67;100.00;97987.66;5084345;28;20111;-47
2021/12/08 07:18:54;;;;;;;7.35;0.88;;;;;;;2.61;100.00;97999.72;5079341;28;19920;-47
2021/12/08 07:21:22;;;;;;;6.95;3.05;;;;;;;2.68;100.00;97999.72;5083529;28;21337;-47
2021/12/08 07:23:57;;;;;;;4.82;1.33;;;;;;;2.67;100.00;97987.66;5084727;28;20032;-47
2021/12/08 07:26:28;;;;;;;7.05;0.40;;;;;;;2.60;100.00;97995.50;5082700;28;20043;-46
2021/12/08 07:28:56;;;;;;;4.00;0.40;;;;;;;2.56;100.00;97990.88;5083678;28;20618;-48
2021/12/08 07:31:31;;;;;;;5.78;0.57;;;;;;;2.56;100.00;97985.66;5081154;28;20206;-47
2021/12/08 07:34:03;;;;;;;4.43;0.55;;;;;;;2.52;100.00;98005.34;5080774;28;20449;-49
2021/12/08 07:36:31;;;;;;;13.25;0.98;;;;;;;2.56;100.00;98001.34;5085021;28;20078;-48
2021/12/08 07:38:59;;;;;;;5.68;1.20;;;;;;;2.64;100.00;97997.72;5085151;28;20031;-51
2021/12/08 07:41:31;;;;;;;4.82;1.13;;;;;;;2.70;100.00;97996.91;5077831;28;20036;-48
2021/12/08 07:44:00;;;;;;;5.53;0.90;;;;;;;2.70;100.00;97996.91;5084041;28;20035;-49
2021/12/08 07:46:31;;;;;;;10.57;1.33;;;;;;;2.66;100.00;97999.13;5083511;28;20032;-48
2021/12/08 07:49:10;;;;;;;9.05;0.68;;;;;;;2.64;100.00;98013.44;5082948;28;20488;-49
2021/12/08 07:52:02;;;;;;;7.03;1.08;;;;;;;2.70;100.00;98010.81;5083561;28;20272;-49
2021/12/08 07:54:30;;;;;;;5.85;1.10;;;;;;;2.72;100.00;98010.59;5068207;28;20043;-47
2021/12/08 07:56:59;;;;;;;6.60;1.25;;;;;;;2.77;100.00;98023.91;5082816;28;20426;-50
2021/12/08 07:59:25;;;;;;;3.65;0.90;;;;;;;2.80;100.00;98021.66;5079520;28;20638;-49
2021/12/08 08:01:55;;;;;;;7.53;0.80;;;;;;;2.80;100.00;98028.72;5075649;28;20141;-49
2021/12/08 08:04:23;;;;;;;7.85;0.65;;;;;;;2.76;100.00;98028.34;5079049;28;20044;-49
2021/12/08 08:06:54;;;;;;;5.20;1.25;;;;;;;2.77;100.00;98039.59;5058421;28;20028;-46
2021/12/08 08:09:25;;;;;;;6.25;0.85;;;;;;;2.86;100.00;98029.72;5077810;28;20039;-50
2021/12/08 08:11:54;;;;;;;4.70;1.35;;;;;;;2.87;100.00;98032.16;5077705;28;20044;-51
2021/12/08 08:14:20;;;;;;;13.80;2.70;;;;;;;2.92;100.00;98028.91;5080490;28;20485;-51
2021/12/08 08:16:50;;;;;;;23.77;7.25;;;;;;;3.00;100.00;98018.25;5080605;28;20145;-49
2021/12/08 08:19:19;;;;;;;22.98;6.90;;;;;;;3.06;100.00;98031.34;5081385;28;20516;-47
2021/12/08 08:21:51;;;;;;;9.05;2.13;;;;;;;3.10;100.00;98026.50;5083851;28;20552;-49
2021/12/08 08:24:18;;;;;;;10.15;2.58;;;;;;;3.16;100.00;98028.31;5076363;28;20030;-46
2021/12/08 08:26:46;;;;;;;8.48;0.85;;;;;;;3.20;100.00;98029.53;5079324;28;20304;-48
2021/12/08 08:29:13;;;;;;;14.88;1.98;;;;;;;3.21;100.00;98038.19;5082544;28;20032;-47
2021/12/08 08:31:48;;;;;;;8.65;0.98;;;;;;;3.21;100.00;98030.31;5072373;28;20059;-52
2021/12/08 08:34:14;;;;;;;4.32;0.68;;;;;;;3.20;100.00;98031.31;5080103;28;20032;-49
2021/12/08 08:36:43;;;;;;;10.48;1.35;;;;;;;3.23;100.00;98036.19;5083901;28;20036;-49
2021/12/08 08:39:17;;;;;;;5.65;1.33;;;;;;;3.39;100.00;98045.41;5083735;28;20077;-48
2021/12/08 08:41:50;;;;;;;12.20;1.77;;;;;;;3.42;100.00;98035.31;5081759;28;20046;-51
2021/12/08 08:44:59;;;;;;;6.63;2.50;;;;;;;3.43;100.00;98036.13;5084533;28;20070;-47
2021/12/08 08:47:31;;;;;;;4.72;1.35;;;;;;;3.42;100.00;98050.25;5000917;28;20403;-47
2021/12/08 08:49:57;;;;;;;12.00;3.38;;;;;;;3.46;100.00;98048.84;5002503;28;20042;-50
2021/12/08 08:52:28;;;;;;;14.15;1.45;;;;;;;3.42;100.00;98047.63;5038642;28;20040;-53
2021/12/08 08:54:57;;;;;;;6.57;1.77;;;;;;;3.44;100.00;98050.84;5083358;28;20032;-47
2021/12/08 08:57:35;;;;;;;9.00;1.42;;;;;;;3.39;100.00;98058.50;5087572;28;20047;-50
2021/12/08 09:00:14;;;;;;;5.00;1.13;;;;;;;3.44;100.00;98050.84;5088932;28;20043;-48
2021/12/08 09:02:40;;;;;;;6.75;2.05;;;;;;;3.37;100.00;98056.09;5088302;28;20028;-48
2021/12/08 09:05:15;;;;;;;7.70;1.90;;;;;;;3.40;100.00;98053.06;5078518;28;20032;-50
2021/12/08 09:07:45;;;;;;;7.28;1.50;;;;;;;3.46;100.00;98060.13;5086823;28;20036;-46
2021/12/08 09:10:15;;;;;;;11.02;1.17;;;;;;;3.48;100.00;98073.81;5087135;28;20024;-50
2021/12/08 09:12:47;;;;;;;4.45;0.88;;;;;;;3.50;100.00;98070.97;5083851;28;20036;-50
2021/12/08 09:15:21;;;;;;;5.88;1.02;;;;;;;3.51;100.00;98077.81;5068317;28;20032;-49
2021/12/08 09:17:54;;;;;;;7.13;0.80;;;;;;;3.56;100.00;98085.06;5083025;28;20040;-47
2021/12/08 09:20:27;;;;;;;14.93;2.53;;;;;;;3.53;100.00;98091.53;5083621;28;20040;-49
2021/12/08 09:22:59;;;;;;;9.32;2.03;;;;;;;3.54;100.00;98106.25;5087887;28;20229;-48
2021/12/08 09:25:45;;;;;;;11.65;0.98;;;;;;;3.71;100.00;98110.03;5089819;28;20035;-53
2021/12/08 09:28:21;;;;;;;11.18;1.60;;;;;;;3.76;100.00;98117.28;5084231;28;20047;-46
2021/12/08 09:31:03;;;;;;;15.38;1.10;;;;;;;3.75;100.00;98118.31;5082496;28;20061;-50
2021/12/08 09:33:38;;;;;;;12.27;1.90;;;;;;;3.79;100.00;98109.00;5064173;28;20035;-49
2021/12/08 09:36:08;;;;;;;7.57;0.95;;;;;;;3.82;100.00;98113.03;5076524;28;20040;-47
2021/12/08 09:38:38;;;;;;;7.38;2.30;;;;;;;3.83;100.00;98117.28;5086114;28;20392;-46
2021/12/08 09:41:26;;;;;;;8.55;0.98;;;;;;;3.88;100.00;98115.66;5084924;28;20024;-46
2021/12/08 09:44:04;;;;;;;6.18;1.85;;;;;;;3.92;100.00;98121.28;5083847;28;20067;-47
2021/12/08 09:46:36;;;;;;;8.98;1.77;;;;;;;4.00;100.00;98143.84;5083667;28;20047;-50
2021/12/08 09:49:05;;;;;;;10.98;1.33;;;;;;;4.05;100.00;98131.78;5083197;28;20024;-48
2021/12/08 09:51:30;;;;;;;13.98;0.93;;;;;;;4.05;100.00;98139.63;5086960;28;20046;-48
2021/12/08 09:53:56;;;;;;;5.45;1.42;;;;;;;4.09;100.00;98138.19;5087124;28;20028;-50
2021/12/08 09:56:23;;;;;;;7.75;0.45;;;;;;;4.13;100.00;98142.03;5086122;28;20039;-47
2021/12/08 09:58:49;;;;;;;10.40;0.90;;;;;;;4.23;100.00;98132.91;5084006;28;20039;-46
2021/12/08 10:01:19;;;;;;;5.90;0.90;;;;;;;4.30;100.00;98152.06;5079931;28;20032;-48
2021/12/08 10:03:46;;;;;;;7.82;1.30;;;;;;;4.38;100.00;98160.50;5086006;28;20445;-47
2021/12/08 10:06:12;;;;;;;8.02;3.20;;;;;;;4.44;100.00;98158.88;5079787;28;20451;-47
2021/12/08 10:08:40;;;;;;;11.85;1.90;;;;;;;4.51;100.00;98157.00;5086241;28;20024;-46
2021/12/08 10:11:05;;;;;;;7.90;1.58;;;;;;;4.56;100.00;98165.06;5084166;28;20040;-48
2021/12/08 10:13:31;;;;;;;9.18;0.68;;;;;;;4.64;100.00;98182.41;5087566;28;20051;-46
2021/12/08 10:15:56;;;;;;;3.42;0.82;;;;;;;4.68;100.00;98167.84;5081781;28;20584;-47
2021/12/08 10:18:22;;;;;;;5.95;1.77;;;;;;;4.71;100.00;98166.63;5081019;28;20373;-46
2021/12/08 10:20:50;;;;;;;5.65;0.98;;;;;;;4.68;100.00;98178.34;5084187;28;20354;-47
2021/12/08 10:23:27;;;;;;;6.90;0.90;;;;;;;4.65;100.00;98183.22;5079385;28;20020;-46
2021/12/08 10:26:05;;;;;;;9.80;1.92;;;;;;;4.63;100.00;98196.53;5084931;28;20046;-47
2021/12/08 10:28:35;;;;;;;8.43;1.90;;;;;;;4.65;100.00;98201.59;5080606;28;20034;-47
2021/12/08 10:31:38;;;;;;;10.18;1.48;;;;;;;4.62;100.00;98205.44;5082374;28;20028;-51
2021/12/08 10:34:29;;;;;;;12.60;4.07;;;;;;;4.59;100.00;98221.59;5066955;28;20527;-46
2021/12/08 10:36:58;;;;;;;7.15;1.88;;;;;;;4.59;100.00;98217.16;5085734;28;20044;-50
2021/12/08 10:39:28;;;;;;;12.32;1.77;;;;;;;4.62;100.00;98209.84;5082963;28;20044;-47
2021/12/08 10:42:07;;;;;;;5.93;0.88;;;;;;;4.69;100.00;98216.69;5085405;28;20024;-48
2021/12/08 10:44:49;;;;;;;37.38;2.78;;;;;;;4.78;100.00;98220.72;5080634;28;20035;-52
2021/12/08 10:47:26;;;;;;;3.63;0.95;;;;;;;4.81;100.00;98227.38;5084109;28;20492;-49
2021/12/08 10:55:13;;;;;;;8.02;0.95;;;;;;;4.89;100.00;98245.50;5083906;28;20108;-48
2021/12/08 10:57:38;;;;;;;8.25;1.60;;;;;;;4.91;100.00;98256.63;5076916;28;20111;-47
2021/12/08 11:00:20;;;;;;;7.60;0.70;;;;;;;4.82;100.00;98274.41;5083468;28;20149;-47
2021/12/08 11:03:00;;;;;;;3.05;0.43;;;;;;;4.59;100.00;98282.78;5082752;28;20107;-49
2021/12/08 11:05:26;;;;;;;6.03;0.65;;;;;;;4.53;100.00;98282.78;5085462;28;20028;-46
2021/12/08 11:08:16;;;;;;;7.25;0.35;;;;;;;4.58;100.00;98286.41;5066157;28;20046;-50
2021/12/08 11:10:59;;;;;;;4.82;0.95;;;;;;;4.66;100.00;98301.13;5084907;28;20043;-48
2021/12/08 11:13:34;;;;;;;4.72;0.68;;;;;;;4.66;100.00;98316.06;5085165;28;20480;-51
2021/12/08 11:16:17;;;;;;;1.90;0.82;;;;;;;4.68;100.00;98308.81;5082561;28;20389;-47
2021/12/08 11:18:57;;;;;;;6.38;0.15;;;;;;;4.69;100.00;98287.56;5073974;28;20028;-48
2021/12/08 11:21:31;;;;;;;1.95;0.82;;;;;;;4.70;100.00;98286.59;5084281;28;20032;-49
2021/12/08 11:23:59;;;;;;;2.97;0.95;;;;;;;4.80;100.00;98280.88;5085713;28;20097;-51
2021/12/08 11:26:27;;;;;;;2.88;0.88;;;;;;;4.86;100.00;98285.31;5085575;28;20067;-48
2021/12/08 11:28:57;;;;;;;3.35;0.40;;;;;;;4.87;100.00;98283.50;5085525;28;20039;-48
2021/12/08 11:31:26;;;;;;;7.55;0.73;;;;;;;4.93;100.00;98288.72;5085469;28;20039;-49
2021/12/08 11:34:00;;;;;;;5.75;0.52;;;;;;;5.02;100.00;98271.72;5084140;28;20036;-48
2021/12/08 11:36:27;;;;;;;5.85;1.48;;;;;;;5.11;100.00;98272.28;5081994;28;20565;-49
2021/12/08 11:38:53;;;;;;;5.85;0.32;;;;;;;5.19;100.00;98282.56;5053170;28;20032;-47
2021/12/08 11:41:34;;;;;;;3.83;0.13;;;;;;;5.22;100.00;98279.50;5083215;28;20397;-47
2021/12/08 11:44:01;;;;;;;6.50;0.17;;;;;;;5.22;100.00;98276.06;5084509;28;20081;-47
2021/12/08 11:46:34;;;;;;;3.90;0.77;;;;;;;5.26;100.00;98287.75;5083091;28;20028;-50
2021/12/08 11:49:06;;;;;;;8.07;1.17;;;;;;;5.32;100.00;98291.34;5075444;28;20512;-49
2021/12/08 11:51:53;;;;;;;3.13;1.63;;;;;;;5.36;100.00;98290.72;5080619;28;20042;-48
2021/12/08 11:54:25;;;;;;;18.25;4.03;;;;;;;5.41;100.00;98301.41;5073878;28;20071;-47
2021/12/08 11:56:52;;;;;;;5.53;0.88;;;;;;;5.52;100.00;98289.44;5081647;28;20036;-47
2021/12/08 11:59:19;;;;;;;6.40;1.08;;;;;;;5.58;100.00;98303.56;5083253;28;20024;-50
2021/12/08 12:01:46;;;;;;;4.03;0.47;;;;;;;5.68;100.00;98293.41;5078314;28;20031;-52
2021/12/08 12:04:11;;;;;;;15.38;2.13;;;;;;;5.76;100.00;98298.41;5079973;28;20485;-47
2021/12/08 12:06:37;;;;;;;3.70;1.20;;;;;;;5.84;100.00;98303.38;5084086;28;20048;-47
2021/12/08 12:09:07;;;;;;;4.70;0.50;;;;;;;5.90;100.00;98314.88;5085740;28;20077;-49
2021/12/08 12:11:33;;;;;;;13.23;2.10;;;;;;;5.96;100.00;98302.72;5082332;28;20035;-48
2021/12/08 12:14:00;;;;;;;8.38;0.95;;;;;;;5.96;100.00;98292.19;5085431;28;20032;-47
2021/12/08 12:16:26;;;;;;;6.22;0.95;;;;;;;5.89;100.00;98295.66;5080300;28;20037;-48
2021/12/08 12:18:56;;;;;;;3.40;1.17;;;;;;;5.86;100.00;98311.88;5079778;28;20032;-47
2021/12/08 12:21:52;;;;;;;10.15;0.68;;;;;;;5.88;100.00;98314.28;5084131;28;20107;-47
2021/12/08 12:24:32;;;;;;;7.55;1.02;;;;;;;5.86;100.00;98322.41;5084929;28;20469;-49
2021/12/08 12:27:19;;;;;;;5.10;0.57;;;;;;;5.89;100.00;98335.13;5087294;28;20078;-52
2021/12/08 12:30:24;;;;;;;0.98;0.60;;;;;;;5.78;100.00;98341.06;5087925;28;20161;-47
2021/12/08 12:32:54;;;;;;;5.47;2.05;;;;;;;5.71;100.00;98334.25;5080199;28;20513;-47
2021/12/08 12:35:23;;;;;;;11.13;1.35;;;;;;;5.66;100.00;98338.28;5083834;28;20039;-49
2021/12/08 12:37:59;;;;;;;5.45;2.05;;;;;;;5.59;100.00;98344.59;5087435;28;20035;-47